sensor_id;sensor_type;location;lat;lon;timestamp;pressure;altitude;pressure_sealevel;temperature;humidity
10482;BME280;5288;42.334;23.876;2022-11-20T00:01:30;56420.97;;;-140.56;85.24
10482;BME280;5288;42.334;23.876;2022-11-20T00:03:57;56428.88;;;-140.56;84.78
10482;BME280;5288;42.334;23.876;2022-11-20T00:06:26;56417.03;;;-140.56;84.84
10482;BME280;5288;42.334;23.876;2022-11-20T00:08:55;56448.66;;;-140.56;85.47
10482;BME280;5288;42.334;23.876;2022-11-20T00:11:23;56440.75;;;-140.56;84.47
10482;BME280;5288;42.334;23.876;2022-11-20T00:13:52;56458.53;;;-140.56;84.57
10482;BME280;5288;42.334;23.876;2022-11-20T00:16:22;56424.94;;;-140.56;84.67
10482;BME280;5288;42.334;23.876;2022-11-20T00:18:50;56466.44;;;-140.56;84.66
10482;BME280;5288;42.334;23.876;2022-11-20T00:21:19;56448.66;;;-140.56;85.11
10482;BME280;5288;42.334;23.876;2022-11-20T00:23:47;56466.44;;;-140.56;84.87
10482;BME280;5288;42.334;23.876;2022-11-20T00:26:16;56430.88;;;-140.56;84.92
10482;BME280;5288;42.334;23.876;2022-11-20T00:28:48;56444.69;;;-140.56;84.04
10482;BME280;5288;42.334;23.876;2022-11-20T00:31:15;56424.94;;;-140.56;84.28
10482;BME280;5288;42.334;23.876;2022-11-20T00:33:45;56440.75;;;-140.56;84.37
10482;BME280;5288;42.334;23.876;2022-11-20T00:36:14;56436.78;;;-140.56;84.58
10482;BME280;5288;42.334;23.876;2022-11-20T00:38:41;56438.78;;;-140.56;83.31
10482;BME280;5288;42.334;23.876;2022-11-20T00:41:10;56480.28;;;-140.56;84.00
10482;BME280;5288;42.334;23.876;2022-11-20T00:43:38;56436.78;;;-140.56;83.94
10482;BME280;5288;42.334;23.876;2022-11-20T00:46:08;56448.66;;;-140.56;84.26
10482;BME280;5288;42.334;23.876;2022-11-20T00:48:35;56460.50;;;-140.56;85.55
10482;BME280;5288;42.334;23.876;2022-11-20T00:51:04;56480.28;;;-140.56;85.52
10482;BME280;5288;42.334;23.876;2022-11-20T00:53:31;56472.38;;;-140.56;84.91
10482;BME280;5288;42.334;23.876;2022-11-20T00:55:59;56488.19;;;-140.56;84.60
10482;BME280;5288;42.334;23.876;2022-11-20T00:58:29;56434.81;;;-140.56;84.93
10482;BME280;5288;42.334;23.876;2022-11-20T01:01:00;56452.59;;;-140.56;84.71
10482;BME280;5288;42.334;23.876;2022-11-20T01:03:27;56440.75;;;-140.56;85.20
10482;BME280;5288;42.334;23.876;2022-11-20T01:05:59;56480.28;;;-140.56;85.83
10482;BME280;5288;42.334;23.876;2022-11-20T01:08:30;56401.22;;;-140.56;85.86
10482;BME280;5288;42.334;23.876;2022-11-20T01:11:01;56440.75;;;-140.56;85.90
10482;BME280;5288;42.334;23.876;2022-11-20T01:13:32;56464.47;;;-140.56;85.07
10482;BME280;5288;42.334;23.876;2022-11-20T01:16:08;56444.69;;;-140.56;85.77
10482;BME280;5288;42.334;23.876;2022-11-20T01:18:36;56462.47;;;-140.56;85.66
10482;BME280;5288;42.334;23.876;2022-11-20T01:21:05;56474.34;;;-140.56;86.08
10482;BME280;5288;42.334;23.876;2022-11-20T01:23:35;56452.59;;;-140.56;86.32
10482;BME280;5288;42.334;23.876;2022-11-20T01:26:03;56426.91;;;-140.56;85.73
10482;BME280;5288;42.334;23.876;2022-11-20T01:28:30;56464.47;;;-140.56;84.99
10482;BME280;5288;42.334;23.876;2022-11-20T01:30:58;56452.59;;;-140.56;85.31
10482;BME280;5288;42.334;23.876;2022-11-20T01:33:25;56484.22;;;-140.56;85.21
10482;BME280;5288;42.334;23.876;2022-11-20T01:35:53;56462.47;;;-140.56;85.53
10482;BME280;5288;42.334;23.876;2022-11-20T01:38:20;56486.19;;;-140.56;85.58
10482;BME280;5288;42.334;23.876;2022-11-20T01:40:55;56440.75;;;-140.56;85.73
10482;BME280;5288;42.334;23.876;2022-11-20T01:43:23;56450.63;;;-140.56;86.18
10482;BME280;5288;42.334;23.876;2022-11-20T01:45:59;56436.78;;;-140.56;86.33
10482;BME280;5288;42.334;23.876;2022-11-20T01:48:31;56472.38;;;-140.56;86.24
10482;BME280;5288;42.334;23.876;2022-11-20T01:51:01;56476.31;;;-140.56;85.52
10482;BME280;5288;42.334;23.876;2022-11-20T01:53:32;56454.59;;;-140.56;85.24
10482;BME280;5288;42.334;23.876;2022-11-20T01:56:05;56446.69;;;-140.56;85.13
10482;BME280;5288;42.334;23.876;2022-11-20T01:58:38;56482.25;;;-140.56;84.75
10482;BME280;5288;42.334;23.876;2022-11-20T02:01:06;56468.41;;;-140.56;84.72
10482;BME280;5288;42.334;23.876;2022-11-20T02:03:33;56446.69;;;-140.56;85.23
10482;BME280;5288;42.334;23.876;2022-11-20T02:06:05;56446.69;;;-140.56;85.41
10482;BME280;5288;42.334;23.876;2022-11-20T02:08:35;56442.72;;;-140.56;85.38
10482;BME280;5288;42.334;23.876;2022-11-20T02:11:04;56478.28;;;-140.56;86.58
10482;BME280;5288;42.334;23.876;2022-11-20T02:13:31;56466.44;;;-140.56;87.08
10482;BME280;5288;42.334;23.876;2022-11-20T02:16:21;56452.59;;;-140.56;87.40
10482;BME280;5288;42.334;23.876;2022-11-20T02:18:49;56490.16;;;-140.56;87.03
10482;BME280;5288;42.334;23.876;2022-11-20T02:21:26;56446.69;;;-140.56;86.47
10482;BME280;5288;42.334;23.876;2022-11-20T02:24:10;56490.16;;;-140.56;85.83
10482;BME280;5288;42.334;23.876;2022-11-20T02:26:44;56460.50;;;-140.56;85.41
10482;BME280;5288;42.334;23.876;2022-11-20T02:29:14;56474.34;;;-140.56;87.36
10482;BME280;5288;42.334;23.876;2022-11-20T02:31:43;56476.31;;;-140.56;87.75
10482;BME280;5288;42.334;23.876;2022-11-20T02:34:10;56484.22;;;-140.56;86.70
10482;BME280;5288;42.334;23.876;2022-11-20T02:36:39;56482.25;;;-140.56;86.43
10482;BME280;5288;42.334;23.876;2022-11-20T02:39:09;56464.47;;;-140.56;86.29
10482;BME280;5288;42.334;23.876;2022-11-20T02:41:38;56478.28;;;-140.56;86.49
10482;BME280;5288;42.334;23.876;2022-11-20T02:44:05;56454.59;;;-140.56;85.83
10482;BME280;5288;42.334;23.876;2022-11-20T02:46:32;56470.38;;;-140.56;85.67
10482;BME280;5288;42.334;23.876;2022-11-20T02:49:01;56464.47;;;-140.56;85.19
10482;BME280;5288;42.334;23.876;2022-11-20T02:51:28;56442.72;;;-140.56;85.14
10482;BME280;5288;42.334;23.876;2022-11-20T02:53:55;56472.38;;;-140.56;85.29
10482;BME280;5288;42.334;23.876;2022-11-20T02:56:24;56476.31;;;-140.56;85.66
10482;BME280;5288;42.334;23.876;2022-11-20T02:58:51;56480.28;;;-140.56;85.07
10482;BME280;5288;42.334;23.876;2022-11-20T03:01:18;56458.53;;;-140.56;85.62
10482;BME280;5288;42.334;23.876;2022-11-20T03:03:45;56460.50;;;-140.56;86.13
10482;BME280;5288;42.334;23.876;2022-11-20T03:06:14;56482.25;;;-140.56;86.67
10482;BME280;5288;42.334;23.876;2022-11-20T03:08:41;56478.28;;;-140.56;86.69
10482;BME280;5288;42.334;23.876;2022-11-20T03:11:08;56462.47;;;-140.56;85.81
10482;BME280;5288;42.334;23.876;2022-11-20T03:13:37;56454.59;;;-140.56;85.88
10482;BME280;5288;42.334;23.876;2022-11-20T03:16:09;56462.47;;;-140.56;86.25
10482;BME280;5288;42.334;23.876;2022-11-20T03:18:37;56440.75;;;-140.56;86.15
10482;BME280;5288;42.334;23.876;2022-11-20T03:21:04;56424.94;;;-140.56;86.19
10482;BME280;5288;42.334;23.876;2022-11-20T03:23:32;56476.31;;;-140.56;85.52
10482;BME280;5288;42.334;23.876;2022-11-20T03:26:10;56434.81;;;-140.56;85.24
10482;BME280;5288;42.334;23.876;2022-11-20T03:28:39;56444.69;;;-140.56;84.72
10482;BME280;5288;42.334;23.876;2022-11-20T03:31:08;56440.75;;;-140.56;84.61
10482;BME280;5288;42.334;23.876;2022-11-20T03:33:36;56426.91;;;-140.56;84.73
10482;BME280;5288;42.334;23.876;2022-11-20T03:36:03;56422.97;;;-140.56;84.84
10482;BME280;5288;42.334;23.876;2022-11-20T03:38:31;56464.47;;;-140.56;85.75
10482;BME280;5288;42.334;23.876;2022-11-20T03:40:59;56442.72;;;-140.56;86.04
10482;BME280;5288;42.334;23.876;2022-11-20T03:43:27;56436.78;;;-140.56;86.52
10482;BME280;5288;42.334;23.876;2022-11-20T03:45:56;56438.78;;;-140.56;86.39
10482;BME280;5288;42.334;23.876;2022-11-20T03:48:23;56442.72;;;-140.56;85.88
10482;BME280;5288;42.334;23.876;2022-11-20T03:50:51;56434.81;;;-140.56;85.62
10482;BME280;5288;42.334;23.876;2022-11-20T03:53:18;56385.41;;;-140.56;85.30
10482;BME280;5288;42.334;23.876;2022-11-20T03:55:45;56434.81;;;-140.56;84.56
10482;BME280;5288;42.334;23.876;2022-11-20T03:58:16;56448.66;;;-140.56;83.93
10482;BME280;5288;42.334;23.876;2022-11-20T04:00:43;56413.06;;;-140.56;84.00
10482;BME280;5288;42.334;23.876;2022-11-20T04:03:12;56452.59;;;-140.56;84.28
10482;BME280;5288;42.334;23.876;2022-11-20T04:05:39;56436.78;;;-140.56;84.02
10482;BME280;5288;42.334;23.876;2022-11-20T04:08:06;56424.94;;;-140.56;83.56
10482;BME280;5288;42.334;23.876;2022-11-20T04:10:33;56446.69;;;-140.56;82.99
10482;BME280;5288;42.334;23.876;2022-11-20T04:13:00;56434.81;;;-140.56;82.40
10482;BME280;5288;42.334;23.876;2022-11-20T04:15:27;56411.09;;;-140.56;82.08
10482;BME280;5288;42.334;23.876;2022-11-20T04:17:54;56389.34;;;-140.56;81.72
10482;BME280;5288;42.334;23.876;2022-11-20T04:20:22;56409.13;;;-140.56;81.64
10482;BME280;5288;42.334;23.876;2022-11-20T04:22:52;56413.06;;;-140.56;80.68
10482;BME280;5288;42.334;23.876;2022-11-20T04:25:20;56420.97;;;-140.56;80.58
10482;BME280;5288;42.334;23.876;2022-11-20T04:27:46;56420.97;;;-140.56;80.35
10482;BME280;5288;42.334;23.876;2022-11-20T04:30:14;56411.09;;;-140.56;80.50
10482;BME280;5288;42.334;23.876;2022-11-20T04:32:41;56415.06;;;-140.56;80.09
10482;BME280;5288;42.334;23.876;2022-11-20T04:35:08;56369.59;;;-140.56;79.94
10482;BME280;5288;42.334;23.876;2022-11-20T04:37:36;56397.25;;;-140.56;79.82
10482;BME280;5288;42.334;23.876;2022-11-20T04:40:04;56409.13;;;-140.56;79.67
10482;BME280;5288;42.334;23.876;2022-11-20T04:42:31;56395.28;;;-140.56;79.70
10482;BME280;5288;42.334;23.876;2022-11-20T04:44:58;56397.25;;;-140.56;79.71
10482;BME280;5288;42.334;23.876;2022-11-20T04:47:25;56405.16;;;-140.56;79.81
10482;BME280;5288;42.334;23.876;2022-11-20T04:49:52;56407.16;;;-140.56;79.38
10482;BME280;5288;42.334;23.876;2022-11-20T04:52:19;56430.88;;;-140.56;78.89
10482;BME280;5288;42.334;23.876;2022-11-20T04:54:48;56383.44;;;-140.56;78.78
10482;BME280;5288;42.334;23.876;2022-11-20T04:57:18;56411.09;;;-140.56;78.66
10482;BME280;5288;42.334;23.876;2022-11-20T04:59:45;56417.03;;;-140.56;79.13
10482;BME280;5288;42.334;23.876;2022-11-20T05:02:12;56389.34;;;-140.56;80.16
10482;BME280;5288;42.334;23.876;2022-11-20T05:04:39;56389.34;;;-140.56;79.71
10482;BME280;5288;42.334;23.876;2022-11-20T05:07:06;56415.06;;;-140.56;79.50
10482;BME280;5288;42.334;23.876;2022-11-20T05:09:33;56428.88;;;-140.56;79.17
10482;BME280;5288;42.334;23.876;2022-11-20T05:12:01;56411.09;;;-140.56;79.66
10482;BME280;5288;42.334;23.876;2022-11-20T05:14:28;56409.13;;;-140.56;80.14
10482;BME280;5288;42.334;23.876;2022-11-20T05:16:55;56420.97;;;-140.56;80.52
10482;BME280;5288;42.334;23.876;2022-11-20T05:19:22;56450.63;;;-140.56;81.00
10482;BME280;5288;42.334;23.876;2022-11-20T05:21:49;56432.84;;;-140.56;81.32
10482;BME280;5288;42.334;23.876;2022-11-20T05:24:16;56419.00;;;-140.56;81.79
10482;BME280;5288;42.334;23.876;2022-11-20T05:26:43;56417.03;;;-140.56;82.03
10482;BME280;5288;42.334;23.876;2022-11-20T05:29:12;56424.94;;;-140.56;81.86
10482;BME280;5288;42.334;23.876;2022-11-20T05:31:39;56407.16;;;-140.56;81.57
10482;BME280;5288;42.334;23.876;2022-11-20T05:34:07;56436.78;;;-140.56;81.47
10482;BME280;5288;42.334;23.876;2022-11-20T05:36:34;56411.09;;;-140.56;81.57
10482;BME280;5288;42.334;23.876;2022-11-20T05:39:02;56393.31;;;-140.56;81.34
10482;BME280;5288;42.334;23.876;2022-11-20T05:41:29;56417.03;;;-140.56;80.92
10482;BME280;5288;42.334;23.876;2022-11-20T05:43:57;56389.34;;;-140.56;80.50
10482;BME280;5288;42.334;23.876;2022-11-20T05:46:26;56397.25;;;-140.56;80.67
10482;BME280;5288;42.334;23.876;2022-11-20T05:48:53;56409.13;;;-140.56;81.10
10482;BME280;5288;42.334;23.876;2022-11-20T05:51:20;56399.25;;;-140.56;80.87
10482;BME280;5288;42.334;23.876;2022-11-20T05:53:47;56430.88;;;-140.56;80.82
10482;BME280;5288;42.334;23.876;2022-11-20T05:56:16;56405.16;;;-140.56;81.27
10482;BME280;5288;42.334;23.876;2022-11-20T05:58:44;56403.19;;;-140.56;81.76
10482;BME280;5288;42.334;23.876;2022-11-20T06:01:12;56430.88;;;-140.56;81.85
10482;BME280;5288;42.334;23.876;2022-11-20T06:03:42;56424.94;;;-140.56;81.19
10482;BME280;5288;42.334;23.876;2022-11-20T06:06:11;56365.66;;;-140.56;80.67
10482;BME280;5288;42.334;23.876;2022-11-20T06:08:38;56391.34;;;-140.56;80.68
10482;BME280;5288;42.334;23.876;2022-11-20T06:11:07;56413.06;;;-140.56;80.50
10482;BME280;5288;42.334;23.876;2022-11-20T06:13:35;56409.13;;;-140.56;80.32
10482;BME280;5288;42.334;23.876;2022-11-20T06:16:02;56385.41;;;-140.56;79.84
10482;BME280;5288;42.334;23.876;2022-11-20T06:18:30;56405.16;;;-140.56;79.78
10482;BME280;5288;42.334;23.876;2022-11-20T06:21:03;56419.00;;;-140.56;79.70
10482;BME280;5288;42.334;23.876;2022-11-20T06:23:31;56422.97;;;-140.56;79.52
10482;BME280;5288;42.334;23.876;2022-11-20T06:26:01;56409.13;;;-140.56;79.00
10482;BME280;5288;42.334;23.876;2022-11-20T06:28:29;56393.31;;;-140.56;78.68
10482;BME280;5288;42.334;23.876;2022-11-20T06:30:56;56426.91;;;-140.56;78.50
10482;BME280;5288;42.334;23.876;2022-11-20T06:33:23;56432.84;;;-140.56;78.25
10482;BME280;5288;42.334;23.876;2022-11-20T06:35:51;56383.44;;;-140.56;78.37
10482;BME280;5288;42.334;23.876;2022-11-20T06:38:20;56375.53;;;-140.56;78.20
10482;BME280;5288;42.334;23.876;2022-11-20T06:40:47;56407.16;;;-140.56;77.86
10482;BME280;5288;42.334;23.876;2022-11-20T06:43:14;56411.09;;;-140.56;77.37
10482;BME280;5288;42.334;23.876;2022-11-20T06:45:41;56415.06;;;-140.56;76.71
10482;BME280;5288;42.334;23.876;2022-11-20T06:48:08;56387.38;;;-140.56;76.66
10482;BME280;5288;42.334;23.876;2022-11-20T06:50:36;56393.31;;;-140.56;76.46
10482;BME280;5288;42.334;23.876;2022-11-20T06:53:04;56379.47;;;-140.56;76.46
10482;BME280;5288;42.334;23.876;2022-11-20T06:55:33;56411.09;;;-140.56;76.72
10482;BME280;5288;42.334;23.876;2022-11-20T06:58:00;56401.22;;;-140.56;77.02
10482;BME280;5288;42.334;23.876;2022-11-20T07:00:27;56381.44;;;-140.56;77.16
10482;BME280;5288;42.334;23.876;2022-11-20T07:02:54;56420.97;;;-140.56;76.93
10482;BME280;5288;42.334;23.876;2022-11-20T07:05:21;56337.97;;;-140.56;76.47
10482;BME280;5288;42.334;23.876;2022-11-20T07:07:48;56369.59;;;-140.56;75.60
10482;BME280;5288;42.334;23.876;2022-11-20T07:10:15;56381.44;;;-140.56;76.41
10482;BME280;5288;42.334;23.876;2022-11-20T07:12:49;56361.69;;;-140.56;76.33
10482;BME280;5288;42.334;23.876;2022-11-20T07:15:16;56377.50;;;-140.56;75.84
10482;BME280;5288;42.334;23.876;2022-11-20T07:17:43;56363.66;;;-140.56;76.23
10482;BME280;5288;42.334;23.876;2022-11-20T07:20:10;56393.31;;;-140.56;75.98
10482;BME280;5288;42.334;23.876;2022-11-20T07:22:38;56383.44;;;-140.56;76.02
10482;BME280;5288;42.334;23.876;2022-11-20T07:25:06;56359.72;;;-140.56;75.74
10482;BME280;5288;42.334;23.876;2022-11-20T07:27:33;56373.56;;;-140.56;75.32
10482;BME280;5288;42.334;23.876;2022-11-20T07:30:02;56365.66;;;-140.56;74.47
10482;BME280;5288;42.334;23.876;2022-11-20T07:32:29;56373.56;;;-140.56;74.06
10482;BME280;5288;42.334;23.876;2022-11-20T07:34:56;56318.22;;;-140.56;73.88
10482;BME280;5288;42.334;23.876;2022-11-20T07:37:24;56377.50;;;-140.56;73.50
10482;BME280;5288;42.334;23.876;2022-11-20T07:39:51;56306.34;;;-140.56;73.84
10482;BME280;5288;42.334;23.876;2022-11-20T07:42:18;56341.94;;;-140.56;73.72
10482;BME280;5288;42.334;23.876;2022-11-20T07:44:45;56353.78;;;-140.56;73.15
10482;BME280;5288;42.334;23.876;2022-11-20T07:47:14;56343.91;;;-140.56;72.85
10482;BME280;5288;42.334;23.876;2022-11-20T07:49:41;56355.75;;;-140.56;71.80
10482;BME280;5288;42.334;23.876;2022-11-20T07:52:08;56310.31;;;-140.56;72.13
10482;BME280;5288;42.334;23.876;2022-11-20T07:54:35;56339.94;;;-140.56;72.27
10482;BME280;5288;42.334;23.876;2022-11-20T07:57:02;56326.13;;;-140.56;72.42
10482;BME280;5288;42.334;23.876;2022-11-20T07:59:29;56302.41;;;-140.56;71.40
10482;BME280;5288;42.334;23.876;2022-11-20T08:01:56;56330.06;;;-140.56;71.30
10482;BME280;5288;42.334;23.876;2022-11-20T08:04:27;56312.28;;;-140.56;70.73
10482;BME280;5288;42.334;23.876;2022-11-20T08:06:57;56316.25;;;-140.56;70.82
10482;BME280;5288;42.334;23.876;2022-11-20T08:09:24;56320.19;;;-140.56;70.93
10482;BME280;5288;42.334;23.876;2022-11-20T08:11:51;56306.34;;;-140.56;70.71
10482;BME280;5288;42.334;23.876;2022-11-20T08:14:36;56320.19;;;-140.56;70.25
10482;BME280;5288;42.334;23.876;2022-11-20T08:17:03;56278.69;;;-140.56;70.28
10482;BME280;5288;42.334;23.876;2022-11-20T08:19:31;56324.13;;;-140.56;69.96
10482;BME280;5288;42.334;23.876;2022-11-20T08:21:58;56308.34;;;-140.56;70.06
10482;BME280;5288;42.334;23.876;2022-11-20T08:24:25;56320.19;;;-140.56;70.02
10482;BME280;5288;42.334;23.876;2022-11-20T08:26:52;56334.03;;;-140.56;69.53
10482;BME280;5288;42.334;23.876;2022-11-20T08:29:19;56288.56;;;-140.56;69.39
10482;BME280;5288;42.334;23.876;2022-11-20T08:31:46;56322.16;;;-140.56;69.25
10482;BME280;5288;42.334;23.876;2022-11-20T08:34:13;56324.13;;;-140.56;69.16
10482;BME280;5288;42.334;23.876;2022-11-20T08:36:42;56304.38;;;-140.56;69.05
10482;BME280;5288;42.334;23.876;2022-11-20T08:39:11;56355.75;;;-140.56;69.27
10482;BME280;5288;42.334;23.876;2022-11-20T08:41:38;56345.88;;;-140.56;68.98
10482;BME280;5288;42.334;23.876;2022-11-20T08:44:07;56302.41;;;-140.56;69.01
10482;BME280;5288;42.334;23.876;2022-11-20T08:46:36;56294.50;;;-140.56;68.18
10482;BME280;5288;42.334;23.876;2022-11-20T08:49:04;56260.91;;;-140.56;67.74
10482;BME280;5288;42.334;23.876;2022-11-20T08:51:31;56296.47;;;-140.56;67.60
10482;BME280;5288;42.334;23.876;2022-11-20T08:54:00;56312.28;;;-140.56;67.23
10482;BME280;5288;42.334;23.876;2022-11-20T08:56:27;56286.59;;;-140.56;67.02
10482;BME280;5288;42.334;23.876;2022-11-20T08:58:54;56268.81;;;-140.56;65.48
10482;BME280;5288;42.334;23.876;2022-11-20T09:01:22;56276.72;;;-140.56;66.30
10482;BME280;5288;42.334;23.876;2022-11-20T09:03:50;56223.34;;;-140.56;66.12
10482;BME280;5288;42.334;23.876;2022-11-20T09:06:17;56280.66;;;-140.56;66.48
10482;BME280;5288;42.334;23.876;2022-11-20T09:08:44;56260.91;;;-140.56;66.43
10482;BME280;5288;42.334;23.876;2022-11-20T09:11:12;56262.88;;;-140.56;66.30
10482;BME280;5288;42.334;23.876;2022-11-20T09:13:39;56264.84;;;-140.56;66.54
10482;BME280;5288;42.334;23.876;2022-11-20T09:16:08;56288.56;;;-140.56;66.15
10482;BME280;5288;42.334;23.876;2022-11-20T09:18:36;56276.72;;;-140.56;65.45
10482;BME280;5288;42.334;23.876;2022-11-20T09:21:05;56239.16;;;-140.56;64.99
10482;BME280;5288;42.334;23.876;2022-11-20T09:23:34;56243.13;;;-140.56;64.56
10482;BME280;5288;42.334;23.876;2022-11-20T09:26:03;56249.03;;;-140.56;64.63
10482;BME280;5288;42.334;23.876;2022-11-20T09:28:32;56262.88;;;-140.56;64.21
10482;BME280;5288;42.334;23.876;2022-11-20T09:30:59;56270.78;;;-140.56;64.48
10482;BME280;5288;42.334;23.876;2022-11-20T09:33:26;56298.44;;;-140.56;64.45
10482;BME280;5288;42.334;23.876;2022-11-20T09:35:53;56316.25;;;-140.56;64.79
10482;BME280;5288;42.334;23.876;2022-11-20T09:38:20;56266.81;;;-140.56;64.49
10482;BME280;5288;42.334;23.876;2022-11-20T09:40:53;56268.81;;;-140.56;64.11
10482;BME280;5288;42.334;23.876;2022-11-20T09:43:29;56256.94;;;-140.56;63.92
10482;BME280;5288;42.334;23.876;2022-11-20T09:46:06;56247.06;;;-140.56;62.73
10482;BME280;5288;42.334;23.876;2022-11-20T09:48:48;56243.13;;;-140.56;62.93
10482;BME280;5288;42.334;23.876;2022-11-20T09:51:30;56270.78;;;-140.56;62.55
10482;BME280;5288;42.334;23.876;2022-11-20T09:54:08;56221.38;;;-140.56;61.49
10482;BME280;5288;42.334;23.876;2022-11-20T09:56:42;56231.25;;;-140.56;60.73
10482;BME280;5288;42.334;23.876;2022-11-20T09:59:23;56231.25;;;-140.56;59.83
10482;BME280;5288;42.334;23.876;2022-11-20T10:01:55;56243.13;;;-140.56;58.87
10482;BME280;5288;42.334;23.876;2022-11-20T10:04:24;56207.53;;;-140.56;58.33
10482;BME280;5288;42.334;23.876;2022-11-20T10:07:00;56201.63;;;-140.56;58.67
10482;BME280;5288;42.334;23.876;2022-11-20T10:09:34;56221.38;;;-140.56;58.59
10482;BME280;5288;42.334;23.876;2022-11-20T10:12:13;56245.09;;;-140.56;60.08
10482;BME280;5288;42.334;23.876;2022-11-20T10:14:57;56219.41;;;-140.56;61.24
10482;BME280;5288;42.334;23.876;2022-11-20T10:17:39;56229.28;;;-140.56;61.89
10482;BME280;5288;42.334;23.876;2022-11-20T10:20:18;56215.44;;;-140.56;61.08
10482;BME280;5288;42.334;23.876;2022-11-20T10:22:56;56229.28;;;-140.56;62.69
10482;BME280;5288;42.334;23.876;2022-11-20T10:25:30;56237.19;;;-140.56;63.64
10482;BME280;5288;42.334;23.876;2022-11-20T10:28:17;56254.97;;;-140.56;64.08
10482;BME280;5288;42.334;23.876;2022-11-20T10:30:53;56225.31;;;-140.56;63.68
10482;BME280;5288;42.334;23.876;2022-11-20T10:33:25;56219.41;;;-140.56;62.93
10482;BME280;5288;42.334;23.876;2022-11-20T10:36:02;56229.28;;;-140.56;63.04
10482;BME280;5288;42.334;23.876;2022-11-20T10:38:37;56282.63;;;-140.56;63.71
10482;BME280;5288;42.334;23.876;2022-11-20T10:41:06;56231.25;;;-140.56;63.79
10482;BME280;5288;42.334;23.876;2022-11-20T10:43:54;56207.53;;;-140.56;64.01
10482;BME280;5288;42.334;23.876;2022-11-20T10:46:33;56227.31;;;-140.56;64.34
10482;BME280;5288;42.334;23.876;2022-11-20T10:49:09;56231.25;;;-140.56;64.69
10482;BME280;5288;42.334;23.876;2022-11-20T10:51:47;56243.13;;;-140.56;64.00
10482;BME280;5288;42.334;23.876;2022-11-20T10:54:21;56217.41;;;-140.56;63.02
10482;BME280;5288;42.334;23.876;2022-11-20T10:56:52;56171.97;;;-140.56;61.96
10482;BME280;5288;42.334;23.876;2022-11-20T10:59:52;56219.41;;;-140.56;61.52
10482;BME280;5288;42.334;23.876;2022-11-20T11:02:23;56241.13;;;-140.56;61.38
10482;BME280;5288;42.334;23.876;2022-11-20T11:04:53;56245.09;;;-140.56;61.64
10482;BME280;5288;42.334;23.876;2022-11-20T11:07:24;56235.22;;;-140.56;62.20
10482;BME280;5288;42.334;23.876;2022-11-20T11:09:53;56233.22;;;-140.56;62.65
10482;BME280;5288;42.334;23.876;2022-11-20T11:12:22;56227.31;;;-140.56;62.91
10482;BME280;5288;42.334;23.876;2022-11-20T11:14:52;56231.25;;;-140.56;62.68
10482;BME280;5288;42.334;23.876;2022-11-20T11:17:27;56201.63;;;-140.56;62.34
10482;BME280;5288;42.334;23.876;2022-11-20T11:20:14;56223.34;;;-140.56;61.92
10482;BME280;5288;42.334;23.876;2022-11-20T11:22:45;56225.31;;;-140.56;62.05
10482;BME280;5288;42.334;23.876;2022-11-20T11:25:25;56223.34;;;-140.56;62.06
10482;BME280;5288;42.334;23.876;2022-11-20T11:27:54;56203.59;;;-140.56;61.56
10482;BME280;5288;42.334;23.876;2022-11-20T11:30:22;56235.22;;;-140.56;61.44
10482;BME280;5288;42.334;23.876;2022-11-20T11:32:50;56227.31;;;-140.56;61.54
10482;BME280;5288;42.334;23.876;2022-11-20T11:35:24;56201.63;;;-140.56;61.45
10482;BME280;5288;42.334;23.876;2022-11-20T11:37:55;56209.50;;;-140.56;61.26
10482;BME280;5288;42.334;23.876;2022-11-20T11:40:31;56239.16;;;-140.56;60.80
10482;BME280;5288;42.334;23.876;2022-11-20T11:43:01;56207.53;;;-140.56;61.14
10482;BME280;5288;42.334;23.876;2022-11-20T11:45:29;56239.16;;;-140.56;60.99
10482;BME280;5288;42.334;23.876;2022-11-20T11:47:56;56235.22;;;-140.56;60.23
10482;BME280;5288;42.334;23.876;2022-11-20T11:50:27;56241.13;;;-140.56;60.18
10482;BME280;5288;42.334;23.876;2022-11-20T11:52:59;56227.31;;;-140.56;59.95
10482;BME280;5288;42.334;23.876;2022-11-20T11:55:35;56213.47;;;-140.56;60.00
10482;BME280;5288;42.334;23.876;2022-11-20T11:58:19;56245.09;;;-140.56;60.56
10482;BME280;5288;42.334;23.876;2022-11-20T12:00:54;56215.44;;;-140.56;60.49
10482;BME280;5288;42.334;23.876;2022-11-20T12:03:27;56237.19;;;-140.56;59.76
10482;BME280;5288;42.334;23.876;2022-11-20T12:06:01;56173.94;;;-140.56;60.04
10482;BME280;5288;42.334;23.876;2022-11-20T12:08:32;56249.03;;;-140.56;60.15
10482;BME280;5288;42.334;23.876;2022-11-20T12:11:12;56237.19;;;-140.56;60.02
10482;BME280;5288;42.334;23.876;2022-11-20T12:13:44;56247.06;;;-140.56;59.91
10482;BME280;5288;42.334;23.876;2022-11-20T12:16:15;56209.50;;;-140.56;59.55
10482;BME280;5288;42.334;23.876;2022-11-20T12:18:46;56219.41;;;-140.56;59.46
10482;BME280;5288;42.334;23.876;2022-11-20T12:21:34;56233.22;;;-140.56;60.36
10482;BME280;5288;42.334;23.876;2022-11-20T12:24:18;56223.34;;;-140.56;60.68
10482;BME280;5288;42.334;23.876;2022-11-20T12:27:02;56203.59;;;-140.56;60.80
10482;BME280;5288;42.334;23.876;2022-11-20T12:29:43;56211.50;;;-140.56;61.72
10482;BME280;5288;42.334;23.876;2022-11-20T12:35:36;56219.41;;;-140.56;62.51
10482;BME280;5288;42.334;23.876;2022-11-20T12:38:31;56235.22;;;-140.56;63.23
10482;BME280;5288;42.334;23.876;2022-11-20T12:41:06;56229.28;;;-140.56;62.49
10482;BME280;5288;42.334;23.876;2022-11-20T12:43:44;56231.25;;;-140.56;63.86
10482;BME280;5288;42.334;23.876;2022-11-20T12:46:39;56260.91;;;-140.56;64.01
10482;BME280;5288;42.334;23.876;2022-11-20T12:49:21;56251.03;;;-140.56;65.60
10482;BME280;5288;42.334;23.876;2022-11-20T12:52:03;56274.72;;;-140.56;67.18
10482;BME280;5288;42.334;23.876;2022-11-20T12:54:52;56253.00;;;-140.56;67.83
10482;BME280;5288;42.334;23.876;2022-11-20T12:57:26;56276.72;;;-140.56;69.10
10482;BME280;5288;42.334;23.876;2022-11-20T13:00:03;56245.09;;;-140.56;70.21